Time;durP1;ratioP1;P1;durP2;ratioP2;P2;SDS_P1;SDS_P2;PMS_P1;PMS_P2;Temp;Humidity;BMP_temperature;BMP_pressure;BME280_temperature;BME280_humidity;BME280_pressure;Samples;Min_cycle;Max_cycle;Signal;HPM_P1;HPM_P2
2022/03/27 00:00:15;;;;;;;19.45;16.02;;;11.30;81.50;;;;;;6033973;23;20182;-75
2022/03/27 00:02:44;;;;;;;19.05;15.75;;;11.20;81.60;;;;;;6034435;23;20202;-76
2022/03/27 00:05:12;;;;;;;19.17;15.13;;;11.20;81.70;;;;;;6034732;23;20243;-75
2022/03/27 00:07:40;;;;;;;19.23;16.02;;;11.20;81.50;;;;;;6034739;23;20175;-73
2022/03/27 00:10:08;;;;;;;18.95;15.43;;;11.20;81.60;;;;;;6032303;23;20179;-76
2022/03/27 00:12:35;;;;;;;19.30;15.88;;;11.10;81.80;;;;;;6034721;23;20223;-74
2022/03/27 00:15:03;;;;;;;18.75;15.80;;;11.10;81.90;;;;;;6035270;23;20212;-74
2022/03/27 00:17:32;;;;;;;19.15;15.38;;;11.10;82.00;;;;;;6034981;23;20563;-78
2022/03/27 00:20:01;;;;;;;17.50;14.65;;;11.00;82.00;;;;;;6035386;23;20225;-75
2022/03/27 00:22:28;;;;;;;18.65;15.60;;;11.00;82.00;;;;;;6033008;23;20195;-75
2022/03/27 00:24:56;;;;;;;20.73;15.57;;;11.00;82.00;;;;;;6034660;23;20186;-74
2022/03/27 00:27:23;;;;;;;17.23;15.43;;;11.00;82.00;;;;;;6035299;23;20175;-74
2022/03/27 00:29:50;;;;;;;17.25;14.13;;;10.90;82.20;;;;;;6033606;23;20306;-74
2022/03/27 00:32:17;;;;;;;17.08;14.73;;;10.90;82.20;;;;;;6034408;23;20202;-75
2022/03/27 00:34:44;;;;;;;17.25;14.52;;;10.90;82.20;;;;;;6034945;23;20207;-76
2022/03/27 00:37:13;;;;;;;18.88;15.25;;;10.90;82.40;;;;;;6035813;23;20493;-75
2022/03/27 00:39:40;;;;;;;17.13;14.00;;;10.90;82.70;;;;;;6037832;23;20211;-75
2022/03/27 00:42:07;;;;;;;16.92;14.10;;;10.80;82.60;;;;;;6036072;23;20274;-74
2022/03/27 00:44:36;;;;;;;16.60;14.77;;;10.80;83.10;;;;;;6032679;23;20234;-75
2022/03/27 00:47:04;;;;;;;17.95;14.85;;;10.80;83.00;;;;;;6035583;23;20698;-74
2022/03/27 00:49:31;;;;;;;16.63;14.00;;;10.80;82.80;;;;;;6034136;23;20215;-75
2022/03/27 00:51:59;;;;;;;16.58;13.73;;;10.80;82.90;;;;;;6036000;23;20213;-75
2022/03/27 00:54:27;;;;;;;17.42;13.80;;;10.80;82.90;;;;;;6033742;23;20218;-76
2022/03/27 00:56:54;;;;;;;17.13;14.52;;;10.80;82.70;;;;;;6035390;23;20195;-75
2022/03/27 00:59:21;;;;;;;18.05;14.75;;;10.80;82.90;;;;;;6033258;23;20213;-75
2022/03/27 01:01:48;;;;;;;15.98;13.80;;;10.70;83.30;;;;;;6035304;23;20262;-74
2022/03/27 01:04:15;;;;;;;18.23;13.82;;;10.70;83.40;;;;;;6034451;23;20233;-74
2022/03/27 01:06:43;;;;;;;17.42;14.27;;;10.70;83.40;;;;;;6034831;23;20198;-78
2022/03/27 01:12:13;;;;;;;17.00;14.00;;;10.70;83.60;;;;;;6035917;23;20223;-75
2022/03/27 01:14:41;;;;;;;17.65;14.35;;;10.60;83.30;;;;;;6033859;23;20226;-77
2022/03/27 01:17:17;;;;;;;16.10;13.63;;;10.60;83.10;;;;;;6035331;23;20507;-75
2022/03/27 01:19:46;;;;;;;16.85;14.45;;;10.60;83.10;;;;;;6034817;23;20256;-78
2022/03/27 01:22:16;;;;;;;17.55;14.35;;;10.50;83.30;;;;;;6035085;23;20255;-78
2022/03/27 01:24:44;;;;;;;16.90;14.38;;;10.50;83.50;;;;;;6035535;23;20213;-76
2022/03/27 01:27:11;;;;;;;16.60;13.98;;;10.40;83.70;;;;;;6035578;23;20171;-76
2022/03/27 01:29:38;;;;;;;15.55;13.93;;;10.30;83.90;;;;;;6034815;23;20587;-77
2022/03/27 01:32:07;;;;;;;17.35;14.18;;;10.30;83.90;;;;;;6034761;23;20198;-77
2022/03/27 01:34:35;;;;;;;15.40;13.20;;;10.30;84.00;;;;;;6033926;23;20213;-76
2022/03/27 01:37:05;;;;;;;16.98;13.70;;;10.30;84.10;;;;;;6034578;23;20210;-77
2022/03/27 01:39:33;;;;;;;17.08;14.98;;;10.30;84.30;;;;;;6034133;23;20217;-76
2022/03/27 01:42:00;;;;;;;16.33;13.27;;;10.30;84.50;;;;;;6034571;23;20203;-75
2022/03/27 01:44:27;;;;;;;15.95;12.93;;;10.30;84.30;;;;;;6033229;23;20207;-75
2022/03/27 01:46:55;;;;;;;17.38;14.23;;;10.30;84.40;;;;;;6034714;23;20226;-77
2022/03/27 01:49:23;;;;;;;17.05;13.73;;;10.20;84.60;;;;;;6033934;23;20211;-77
2022/03/27 01:51:50;;;;;;;15.43;13.00;;;10.20;84.60;;;;;;6029004;23;20207;-78
2022/03/27 01:54:19;;;;;;;15.20;13.00;;;10.20;84.70;;;;;;6005001;23;20218;-78
2022/03/27 01:56:47;;;;;;;15.82;13.35;;;10.10;84.60;;;;;;6007652;23;20223;-78
2022/03/27 01:59:16;;;;;;;16.02;13.93;;;10.10;84.40;;;;;;6007910;23;20271;-79
2022/03/27 02:01:43;;;;;;;17.15;14.57;;;10.10;84.80;;;;;;6013310;23;20196;-78
2022/03/27 02:04:11;;;;;;;16.50;13.57;;;10.10;84.90;;;;;;6037459;23;20207;-79
2022/03/27 02:06:39;;;;;;;15.35;13.27;;;10.10;84.90;;;;;;6038594;23;20222;-79
2022/03/27 02:09:06;;;;;;;17.80;13.15;;;10.10;85.00;;;;;;6037210;23;20268;-77
2022/03/27 02:11:34;;;;;;;15.65;13.55;;;10.00;84.70;;;;;;6037437;23;20175;-79
2022/03/27 02:14:03;;;;;;;16.65;13.80;;;10.00;84.90;;;;;;6037058;23;20270;-77
2022/03/27 02:16:30;;;;;;;16.98;13.93;;;10.00;85.00;;;;;;6037366;23;20201;-78
2022/03/27 02:18:57;;;;;;;15.68;13.70;;;9.90;85.10;;;;;;6037955;23;20207;-77
2022/03/27 02:21:24;;;;;;;16.77;13.77;;;9.90;85.20;;;;;;6036708;23;20179;-80
2022/03/27 02:23:51;;;;;;;17.33;14.27;;;9.90;85.30;;;;;;6036524;23;20687;-77
2022/03/27 02:26:18;;;;;;;17.40;13.20;;;9.80;85.50;;;;;;6038522;23;20183;-78
2022/03/27 02:28:45;;;;;;;18.75;14.57;;;9.80;85.70;;;;;;6036998;23;20226;-78
2022/03/27 02:31:14;;;;;;;16.13;13.32;;;9.70;85.60;;;;;;6036510;23;20179;-78
2022/03/27 02:33:41;;;;;;;17.60;14.65;;;9.70;85.50;;;;;;6036044;23;20211;-77
2022/03/27 02:36:08;;;;;;;17.65;14.52;;;9.70;85.90;;;;;;6036840;23;20195;-78
2022/03/27 02:38:36;;;;;;;16.63;14.27;;;9.70;85.90;;;;;;6036758;23;20214;-77
2022/03/27 02:41:04;;;;;;;14.93;13.35;;;9.60;86.10;;;;;;6037340;23;20179;-76
2022/03/27 02:43:32;;;;;;;13.80;12.30;;;9.60;86.30;;;;;;6036498;23;20273;-78
2022/03/27 02:45:59;;;;;;;15.15;12.75;;;9.50;86.30;;;;;;6038785;23;20664;-77
2022/03/27 02:48:28;;;;;;;14.13;12.20;;;9.50;86.10;;;;;;6037186;23;20212;-78
2022/03/27 02:50:55;;;;;;;13.00;11.65;;;9.40;85.50;;;;;;6038382;23;20183;-79
2022/03/27 02:53:22;;;;;;;14.63;12.15;;;9.50;85.50;;;;;;6037305;23;20211;-80
2022/03/27 02:55:49;;;;;;;15.57;12.70;;;9.50;85.90;;;;;;6039108;23;20203;-78
2022/03/27 02:58:16;;;;;;;14.85;12.60;;;9.50;86.30;;;;;;6038139;23;20182;-78
2022/03/27 03:00:44;;;;;;;14.82;13.20;;;9.50;86.40;;;;;;6037482;23;20182;-78
2022/03/27 03:03:12;;;;;;;15.80;12.65;;;9.40;86.40;;;;;;6036761;23;20203;-77
2022/03/27 03:05:42;;;;;;;14.95;12.07;;;9.40;86.40;;;;;;6037805;23;20175;-77
2022/03/27 03:08:11;;;;;;;14.98;12.40;;;9.40;86.30;;;;;;6037380;23;20688;-78
2022/03/27 03:10:39;;;;;;;14.32;12.57;;;9.30;86.50;;;;;;6037843;23;20175;-77
2022/03/27 03:13:08;;;;;;;14.68;12.23;;;9.30;86.50;;;;;;6039169;23;20241;-79
2022/03/27 03:15:35;;;;;;;12.77;11.10;;;9.30;86.10;;;;;;6039362;23;20637;-78
2022/03/27 03:18:03;;;;;;;13.57;11.32;;;9.30;86.40;;;;;;6040077;23;20190;-77
2022/03/27 03:20:31;;;;;;;13.63;11.70;;;9.30;86.70;;;;;;6039262;23;20545;-78
2022/03/27 03:23:00;;;;;;;14.35;12.20;;;9.30;86.70;;;;;;6038815;23;20758;-79
2022/03/27 03:25:27;;;;;;;13.75;12.25;;;9.20;86.60;;;;;;6039028;23;20211;-77
2022/03/27 03:27:54;;;;;;;14.07;12.07;;;9.20;86.80;;;;;;6040787;23;20194;-79
2022/03/27 03:30:22;;;;;;;13.82;12.32;;;9.10;86.80;;;;;;6040449;23;20612;-77
2022/03/27 03:32:50;;;;;;;14.32;11.98;;;9.10;86.90;;;;;;6039190;23;20206;-78
2022/03/27 03:35:17;;;;;;;13.05;11.65;;;9.10;87.20;;;;;;6039387;23;20206;-79
2022/03/27 03:37:45;;;;;;;14.35;12.13;;;9.00;87.20;;;;;;6039554;23;20195;-78
2022/03/27 03:40:14;;;;;;;13.23;11.15;;;9.00;87.20;;;;;;6038336;23;20214;-78
2022/03/27 03:42:42;;;;;;;13.95;12.30;;;8.90;87.50;;;;;;6038183;23;20698;-78
2022/03/27 03:45:09;;;;;;;13.57;12.15;;;8.90;87.20;;;;;;6038144;23;20206;-77
2022/03/27 03:47:37;;;;;;;15.10;12.60;;;8.90;87.40;;;;;;6038526;23;20616;-79
2022/03/27 03:50:05;;;;;;;13.93;12.00;;;8.90;87.50;;;;;;6038238;23;20582;-77
2022/03/27 03:52:32;;;;;;;14.48;12.77;;;8.90;87.70;;;;;;6038762;23;20415;-78
2022/03/27 03:54:59;;;;;;;16.65;13.23;;;8.80;87.70;;;;;;6037868;23;20275;-77
2022/03/27 03:57:27;;;;;;;13.77;12.32;;;8.80;88.30;;;;;;6039327;23;20199;-77
2022/03/27 03:59:55;;;;;;;14.80;12.32;;;8.80;88.50;;;;;;6038111;23;20210;-80
2022/03/27 04:02:22;;;;;;;13.25;11.85;;;8.70;88.40;;;;;;6039575;23;20205;-78
2022/03/27 04:04:49;;;;;;;13.95;11.57;;;8.70;88.30;;;;;;6038495;23;20554;-78
2022/03/27 04:07:16;;;;;;;11.90;10.63;;;8.70;88.40;;;;;;6039817;23;20177;-78
2022/03/27 04:09:43;;;;;;;12.75;10.90;;;8.70;88.10;;;;;;6038474;23;20211;-78
2022/03/27 04:12:11;;;;;;;14.00;12.40;;;8.70;87.60;;;;;;6039169;23;20234;-77
2022/03/27 04:14:40;;;;;;;14.60;11.60;;;8.70;87.20;;;;;;6039001;23;20206;-77
2022/03/27 04:17:07;;;;;;;14.65;11.75;;;8.70;87.90;;;;;;6040088;23;20194;-78
2022/03/27 04:19:34;;;;;;;13.63;11.98;;;8.70;87.90;;;;;;6039105;23;20207;-77
2022/03/27 04:22:01;;;;;;;14.98;11.82;;;8.70;88.10;;;;;;6039541;23;20270;-78
2022/03/27 04:24:28;;;;;;;14.85;12.23;;;8.70;88.60;;;;;;6038338;23;20258;-79
2022/03/27 04:26:55;;;;;;;14.68;12.18;;;8.60;88.40;;;;;;6039591;23;20175;-79
2022/03/27 04:29:22;;;;;;;11.85;10.23;;;8.60;88.40;;;;;;6039651;23;20559;-78
2022/03/27 04:31:51;;;;;;;12.45;10.55;;;8.50;88.40;;;;;;6039210;23;20238;-77
2022/03/27 04:34:18;;;;;;;12.57;10.48;;;8.50;88.30;;;;;;6038250;23;20237;-79
2022/03/27 04:36:45;;;;;;;11.85;10.23;;;8.50;89.10;;;;;;6039432;23;20195;-78
2022/03/27 04:39:12;;;;;;;14.55;11.52;;;8.50;88.30;;;;;;6038244;23;20207;-78
2022/03/27 04:41:39;;;;;;;12.73;11.05;;;8.50;88.40;;;;;;6039382;23;20199;-77
2022/03/27 04:44:08;;;;;;;12.77;11.38;;;8.50;88.30;;;;;;6039188;23;20217;-78
2022/03/27 04:46:35;;;;;;;15.27;12.02;;;8.40;88.50;;;;;;6038913;23;20183;-78
2022/03/27 04:49:04;;;;;;;12.90;10.80;;;8.40;88.70;;;;;;6039459;23;20203;-78
2022/03/27 04:51:31;;;;;;;12.65;11.07;;;8.40;88.70;;;;;;6038872;23;20643;-79
2022/03/27 04:53:59;;;;;;;13.02;11.60;;;8.40;88.70;;;;;;6038813;23;20603;-78
2022/03/27 04:56:26;;;;;;;12.40;10.40;;;8.40;88.70;;;;;;6040117;23;20195;-79
2022/03/27 04:58:53;;;;;;;12.48;10.60;;;8.40;88.70;;;;;;6041124;23;20273;-78
2022/03/27 05:01:20;;;;;;;14.35;12.05;;;8.40;88.90;;;;;;6039111;23;20644;-78
2022/03/27 05:03:47;;;;;;;13.52;11.90;;;8.40;89.00;;;;;;6037267;23;20581;-77
2022/03/27 05:06:16;;;;;;;12.00;10.48;;;8.30;89.00;;;;;;6038591;23;20185;-77
2022/03/27 05:08:44;;;;;;;13.18;10.65;;;8.30;89.10;;;;;;6038594;23;20179;-78
2022/03/27 05:11:12;;;;;;;11.80;10.45;;;8.30;89.20;;;;;;6040051;23;20202;-79
2022/03/27 05:13:39;;;;;;;12.27;10.98;;;8.30;89.20;;;;;;6035381;23;20221;-79
2022/03/27 05:16:06;;;;;;;14.15;10.68;;;8.30;89.20;;;;;;6039678;23;20179;-79
2022/03/27 05:18:33;;;;;;;14.40;11.75;;;8.30;90.00;;;;;;6037518;23;20492;-79
2022/03/27 05:21:00;;;;;;;13.48;11.65;;;8.20;90.00;;;;;;6037966;23;20179;-77
2022/03/27 05:23:29;;;;;;;13.90;11.65;;;8.20;90.00;;;;;;6036729;23;20203;-77
2022/03/27 05:25:56;;;;;;;12.27;10.70;;;8.20;89.80;;;;;;6036672;23;20238;-78
2022/03/27 05:28:23;;;;;;;13.70;11.43;;;8.20;89.70;;;;;;6036317;23;20704;-77
2022/03/27 05:30:50;;;;;;;12.38;10.25;;;8.30;89.60;;;;;;6036028;23;20203;-78
2022/03/27 05:33:17;;;;;;;13.15;11.25;;;8.30;89.40;;;;;;6036675;23;20687;-77
2022/03/27 05:35:44;;;;;;;14.25;11.38;;;8.30;89.60;;;;;;6036038;23;20211;-78
2022/03/27 05:38:11;;;;;;;11.63;10.25;;;8.30;89.90;;;;;;6037458;23;20246;-77
2022/03/27 05:40:40;;;;;;;13.35;11.27;;;8.30;89.80;;;;;;6035924;23;20608;-77
2022/03/27 05:43:07;;;;;;;13.45;11.48;;;8.30;89.60;;;;;;6037579;23;20203;-77
2022/03/27 05:45:36;;;;;;;12.43;11.05;;;8.40;89.70;;;;;;6036511;23;20203;-78
2022/03/27 05:48:03;;;;;;;11.88;10.52;;;8.60;89.70;;;;;;6036856;23;20199;-78
2022/03/27 05:50:31;;;;;;;14.00;10.60;;;8.80;89.50;;;;;;6037704;23;20249;-77
2022/03/27 05:52:58;;;;;;;10.95;9.85;;;9.10;89.10;;;;;;6040496;23;20207;-79
2022/03/27 05:55:26;;;;;;;11.68;10.35;;;9.40;87.30;;;;;;6038478;23;20206;-80
2022/03/27 05:57:54;;;;;;;12.68;11.18;;;9.70;86.70;;;;;;6039606;23;20194;-80
2022/03/27 06:00:21;;;;;;;12.65;11.18;;;10.00;86.70;;;;;;6039454;23;20218;-79
2022/03/27 06:02:49;;;;;;;14.57;12.05;;;10.20;85.80;;;;;;6038231;23;20195;-79
2022/03/27 06:05:22;;;;;;;13.00;11.48;;;10.40;85.20;;;;;;6035338;23;20210;-77
2022/03/27 06:07:50;;;;;;;12.98;11.32;;;10.60;84.90;;;;;;6036025;23;20163;-78
2022/03/27 06:10:21;;;;;;;14.20;11.85;;;10.90;85.00;;;;;;6036487;23;20214;-77
2022/03/27 06:12:48;;;;;;;13.75;11.02;;;11.20;85.30;;;;;;6035465;23;20525;-79
2022/03/27 06:15:17;;;;;;;13.85;11.57;;;11.30;84.40;;;;;;6036980;23;20210;-76
2022/03/27 06:17:45;;;;;;;13.15;11.25;;;11.50;84.20;;;;;;6035924;23;20202;-77
2022/03/27 06:20:14;;;;;;;15.18;13.57;;;11.70;84.20;;;;;;6035887;23;20203;-79
2022/03/27 06:22:41;;;;;;;13.80;11.45;;;12.00;84.60;;;;;;6034955;23;20279;-77
2022/03/27 06:25:10;;;;;;;13.95;11.73;;;12.30;84.10;;;;;;6034943;23;20595;-77
2022/03/27 06:27:37;;;;;;;14.35;12.60;;;12.50;82.00;;;;;;6035350;23;20189;-77
2022/03/27 06:30:06;;;;;;;13.35;11.95;;;12.60;81.60;;;;;;6035191;23;20214;-78
2022/03/27 06:32:36;;;;;;;15.20;13.55;;;12.70;81.50;;;;;;6035784;23;20199;-78
2022/03/27 06:35:05;;;;;;;13.82;12.32;;;12.80;81.40;;;;;;6034536;23;20207;-77
2022/03/27 06:37:33;;;;;;;14.13;12.63;;;12.80;81.10;;;;;;6035160;23;20231;-78
2022/03/27 06:40:00;;;;;;;14.88;12.05;;;12.90;81.30;;;;;;6033621;23;20210;-77
2022/03/27 06:42:28;;;;;;;13.25;11.82;;;13.00;81.20;;;;;;6036864;23;20230;-79
2022/03/27 06:44:55;;;;;;;15.27;13.13;;;13.20;80.20;;;;;;6033659;23;20687;-78
2022/03/27 06:47:24;;;;;;;13.98;11.32;;;13.30;80.50;;;;;;6037060;23;20179;-77
2022/03/27 06:49:53;;;;;;;14.15;12.55;;;13.50;80.60;;;;;;6036560;23;20253;-77
2022/03/27 06:52:21;;;;;;;15.43;13.75;;;13.60;80.20;;;;;;6037313;23;20213;-79
2022/03/27 06:54:49;;;;;;;13.90;12.18;;;13.80;80.00;;;;;;6040388;23;20206;-79
2022/03/27 06:57:16;;;;;;;14.80;12.80;;;13.90;80.10;;;;;;6040530;23;20199;-79
2022/03/27 07:05:14;;;;;;;15.07;12.55;;;14.10;79.60;;;;;;6037482;23;20254;-77
2022/03/27 07:07:42;;;;;;;14.77;12.40;;;14.20;79.90;;;;;;6038811;23;20555;-77
2022/03/27 07:10:10;;;;;;;14.07;12.57;;;14.30;79.00;;;;;;6038426;23;20282;-78
2022/03/27 07:12:37;;;;;;;15.15;13.55;;;14.40;80.20;;;;;;6039200;23;20567;-77
2022/03/27 07:15:05;;;;;;;16.00;12.43;;;14.20;78.50;;;;;;6038964;23;20215;-78
2022/03/27 07:17:32;;;;;;;14.02;12.57;;;14.20;78.30;;;;;;6038098;23;20199;-78
2022/03/27 07:19:59;;;;;;;14.43;12.00;;;14.40;78.40;;;;;;6039226;23;20203;-77
2022/03/27 07:22:28;;;;;;;14.00;12.55;;;14.40;78.90;;;;;;6037779;23;20286;-78
2022/03/27 07:24:55;;;;;;;15.27;13.18;;;14.60;78.80;;;;;;6038045;23;20207;-80
2022/03/27 07:27:22;;;;;;;16.20;13.10;;;14.70;78.20;;;;;;6037879;23;20667;-78
2022/03/27 07:29:49;;;;;;;14.20;12.38;;;14.80;78.30;;;;;;6038276;23;20207;-79
2022/03/27 07:32:16;;;;;;;15.80;13.65;;;14.70;77.40;;;;;;6038210;23;20199;-79
2022/03/27 07:34:43;;;;;;;14.73;13.23;;;14.90;76.90;;;;;;6038455;23;20213;-80
2022/03/27 07:37:10;;;;;;;15.73;13.30;;;15.10;76.50;;;;;;6039059;23;20183;-78
2022/03/27 07:39:39;;;;;;;14.88;13.27;;;15.30;76.00;;;;;;6038329;23;20210;-78
2022/03/27 07:42:06;;;;;;;15.43;13.73;;;15.30;75.60;;;;;;6037838;23;20199;-77
2022/03/27 07:44:33;;;;;;;16.08;14.25;;;15.30;75.70;;;;;;6036888;23;20203;-78
2022/03/27 07:47:01;;;;;;;17.80;13.57;;;15.20;76.10;;;;;;6037780;23;20179;-78
2022/03/27 07:49:28;;;;;;;14.80;13.20;;;15.20;76.00;;;;;;6037402;23;20235;-78
2022/03/27 07:51:55;;;;;;;17.45;14.57;;;15.20;75.40;;;;;;6038116;23;20214;-77
2022/03/27 07:54:22;;;;;;;14.75;13.25;;;15.20;75.80;;;;;;6035645;23;20483;-75
2022/03/27 07:56:51;;;;;;;17.77;13.65;;;15.30;75.90;;;;;;6038548;23;20246;-74
2022/03/27 07:59:18;;;;;;;14.43;12.93;;;15.30;75.70;;;;;;6041437;23;20203;-76
2022/03/27 08:01:45;;;;;;;16.42;13.90;;;15.30;76.10;;;;;;6039381;23;20174;-75
2022/03/27 08:04:13;;;;;;;15.25;13.25;;;15.40;75.90;;;;;;6061754;23;20202;-75
2022/03/27 08:06:40;;;;;;;17.25;12.57;;;15.50;75.40;;;;;;6069928;23;20210;-76
2022/03/27 08:09:08;;;;;;;15.20;13.68;;;15.60;75.40;;;;;;6072260;23;20182;-77
2022/03/27 08:11:37;;;;;;;17.40;13.90;;;15.80;75.60;;;;;;6069717;23;20228;-76
2022/03/27 08:14:05;;;;;;;15.05;13.48;;;15.90;75.50;;;;;;6070803;23;20202;-76
2022/03/27 08:16:32;;;;;;;16.23;12.95;;;16.10;75.00;;;;;;6070782;23;20640;-77
2022/03/27 08:18:59;;;;;;;16.30;13.57;;;16.30;75.50;;;;;;6071034;23;20201;-76
2022/03/27 08:21:26;;;;;;;14.23;12.73;;;16.70;74.10;;;;;;6071712;23;20217;-78
2022/03/27 08:23:53;;;;;;;15.32;13.13;;;17.00;73.70;;;;;;6073074;23;20206;-78
2022/03/27 08:29:06;;;;;;;13.93;12.43;;;17.10;72.70;;;;;;6066282;23;20206;-77
2022/03/27 08:31:34;;;;;;;15.18;13.57;;;17.30;73.00;;;;;;6066901;23;20442;-77
2022/03/27 08:34:02;;;;;;;14.80;13.18;;;17.40;72.60;;;;;;6068831;23;20194;-77
2022/03/27 08:36:29;;;;;;;16.88;14.80;;;17.40;72.30;;;;;;6066545;23;20564;-80
2022/03/27 08:38:57;;;;;;;17.13;13.88;;;17.40;71.70;;;;;;6065731;23;20198;-80
2022/03/27 08:41:24;;;;;;;16.13;13.25;;;17.40;72.30;;;;;;6073489;23;20209;-76
2022/03/27 08:43:58;;;;;;;15.82;14.13;;;17.70;73.10;;;;;;6064359;23;20195;-75
2022/03/27 08:46:29;;;;;;;14.05;12.60;;;17.80;71.40;;;;;;6063400;23;20210;-74
2022/03/27 08:49:01;;;;;;;13.88;12.45;;;18.00;71.10;;;;;;6062017;23;20182;-75
2022/03/27 08:51:34;;;;;;;17.00;13.38;;;18.00;70.90;;;;;;6061443;23;20240;-75
2022/03/27 08:54:05;;;;;;;15.45;13.25;;;18.00;70.50;;;;;;6062561;23;20206;-76
2022/03/27 08:56:33;;;;;;;15.02;13.25;;;18.20;70.40;;;;;;6061748;23;20206;-76
2022/03/27 08:59:09;;;;;;;15.85;13.20;;;18.20;70.40;;;;;;6061552;23;20202;-76
2022/03/27 09:01:39;;;;;;;15.57;13.98;;;18.20;70.40;;;;;;6061272;23;20285;-78
2022/03/27 09:04:06;;;;;;;15.13;13.63;;;18.20;71.20;;;;;;6060396;23;20763;-78
2022/03/27 09:06:34;;;;;;;16.38;13.50;;;18.20;70.70;;;;;;6061187;23;20210;-77
2022/03/27 09:09:01;;;;;;;15.50;13.13;;;18.30;70.20;;;;;;6062278;23;20182;-80
2022/03/27 09:11:31;;;;;;;16.23;13.93;;;18.40;70.40;;;;;;6063097;23;20213;-77
2022/03/27 09:13:59;;;;;;;15.90;13.65;;;18.40;70.10;;;;;;6061411;23;20198;-77
2022/03/27 09:16:26;;;;;;;18.88;14.75;;;18.40;70.40;;;;;;6061011;23;20206;-78
2022/03/27 09:18:58;;;;;;;14.73;13.20;;;18.50;69.70;;;;;;6061928;23;20202;-79
2022/03/27 09:21:27;;;;;;;16.77;14.30;;;18.50;71.00;;;;;;6060223;23;20206;-79
2022/03/27 09:23:55;;;;;;;17.65;14.32;;;18.70;69.40;;;;;;6062079;23;20202;-77
2022/03/27 09:26:23;;;;;;;15.75;13.88;;;18.60;68.90;;;;;;6060968;23;20496;-77
2022/03/27 09:28:52;;;;;;;16.02;13.88;;;18.50;68.60;;;;;;6064322;23;20181;-80
2022/03/27 09:31:25;;;;;;;16.10;14.40;;;18.40;69.40;;;;;;6060772;23;20287;-80
2022/03/27 09:33:55;;;;;;;15.88;14.10;;;18.70;69.10;;;;;;6068965;23;20199;-79
2022/03/27 09:36:25;;;;;;;16.05;14.32;;;18.90;69.00;;;;;;6060718;23;20616;-76
2022/03/27 09:39:07;;;;;;;15.20;13.60;;;19.10;68.90;;;;;;6063061;23;20205;-77
2022/03/27 09:41:36;;;;;;;16.27;14.38;;;19.00;67.00;;;;;;6061690;23;20241;-77
2022/03/27 09:44:07;;;;;;;16.15;13.45;;;18.90;67.60;;;;;;6062529;23;20198;-78
2022/03/27 09:46:58;;;;;;;17.35;13.18;;;19.00;67.60;;;;;;6061382;23;20716;-78
2022/03/27 09:49:39;;;;;;;15.68;14.00;;;19.10;67.60;;;;;;6062066;23;20576;-78
2022/03/27 09:52:09;;;;;;;15.75;13.98;;;19.00;66.60;;;;;;6061676;23;20225;-76
2022/03/27 09:54:48;;;;;;;16.30;14.32;;;19.10;66.80;;;;;;6061582;23;20206;-75
2022/03/27 09:57:20;;;;;;;14.50;12.98;;;19.30;67.10;;;;;;6060461;23;20232;-76
2022/03/27 09:59:47;;;;;;;14.70;13.23;;;19.20;66.40;;;;;;6069338;23;20220;-77
2022/03/27 10:02:20;;;;;;;15.02;13.38;;;19.30;66.50;;;;;;6063809;23;20249;-77
2022/03/27 10:05:00;;;;;;;16.70;13.40;;;19.60;67.60;;;;;;6061349;23;20222;-78
2022/03/27 10:07:32;;;;;;;16.33;14.07;;;19.60;67.30;;;;;;6059887;23;20206;-77
2022/03/27 10:09:59;;;;;;;15.95;14.07;;;19.50;66.40;;;;;;6069562;23;20170;-75
2022/03/27 10:12:29;;;;;;;18.23;14.20;;;19.40;66.10;;;;;;6066214;23;20209;-78
2022/03/27 10:15:00;;;;;;;14.98;13.40;;;19.60;66.40;;;;;;6065447;23;20182;-75
2022/03/27 10:17:29;;;;;;;16.25;13.60;;;19.50;65.60;;;;;;6059165;23;20278;-75
2022/03/27 10:20:02;;;;;;;14.40;12.90;;;19.40;65.50;;;;;;6062964;23;20525;-76
2022/03/27 10:22:30;;;;;;;15.73;13.68;;;19.60;65.60;;;;;;6065470;23;20202;-79
2022/03/27 10:25:02;;;;;;;15.70;13.70;;;19.80;65.90;;;;;;6080854;23;20166;-76
2022/03/27 10:27:31;;;;;;;15.82;13.20;;;19.90;65.30;;;;;;6063238;23;20206;-76
2022/03/27 10:29:59;;;;;;;13.85;12.45;;;20.00;66.50;;;;;;6064108;23;20182;-77
2022/03/27 10:32:26;;;;;;;16.75;13.10;;;20.20;63.90;;;;;;6062823;23;20264;-76
2022/03/27 10:35:09;;;;;;;14.60;12.90;;;20.20;63.70;;;;;;6065145;23;20282;-75
2022/03/27 10:37:44;;;;;;;16.17;13.45;;;20.40;63.80;;;;;;6062769;23;20182;-75
2022/03/27 10:40:19;;;;;;;15.43;13.55;;;20.40;64.00;;;;;;6064920;23;20186;-76
2022/03/27 10:42:52;;;;;;;14.02;12.57;;;20.60;63.80;;;;;;6064153;23;20533;-74
2022/03/27 10:45:21;;;;;;;14.68;12.68;;;20.60;63.30;;;;;;6064559;23;20159;-75
2022/03/27 10:48:12;;;;;;;15.43;13.60;;;20.40;62.40;;;;;;6063540;23;20265;-76
2022/03/27 10:50:52;;;;;;;14.52;13.05;;;20.40;64.10;;;;;;6064699;23;20417;-77
2022/03/27 10:53:21;;;;;;;15.55;13.93;;;20.60;63.00;;;;;;6064844;23;20202;-76
2022/03/27 10:55:51;;;;;;;15.45;13.20;;;20.70;62.90;;;;;;6063852;23;20277;-76
2022/03/27 10:58:39;;;;;;;14.50;13.00;;;20.90;62.80;;;;;;6064647;23;20185;-76
2022/03/27 11:01:09;;;;;;;14.68;13.18;;;21.20;62.80;;;;;;6064487;23;20202;-76
2022/03/27 11:03:52;;;;;;;15.40;13.52;;;21.20;63.00;;;;;;6064279;23;20250;-77
2022/03/27 11:06:26;;;;;;;15.20;13.57;;;21.10;62.50;;;;;;6064614;23;20222;-76
2022/03/27 11:08:55;;;;;;;15.15;12.73;;;21.10;62.50;;;;;;6065560;23;20166;-76
2022/03/27 11:11:56;;;;;;;16.52;12.93;;;21.30;62.50;;;;;;6065071;23;20209;-76
2022/03/27 11:14:53;;;;;;;16.92;14.38;;;21.60;62.80;;;;;;5977069;23;20324;-76
2022/03/27 11:17:38;;;;;;;15.98;14.35;;;21.70;61.70;;;;;;5991530;24;20273;-78
2022/03/27 11:20:07;;;;;;;15.32;13.82;;;21.70;61.90;;;;;;6045106;23;20202;-77
2022/03/27 11:23:02;;;;;;;17.25;14.52;;;21.30;61.70;;;;;;6065044;23;20273;-76
2022/03/27 11:25:34;;;;;;;17.58;14.02;;;21.30;62.30;;;;;;6064918;23;20172;-76
2022/03/27 11:28:11;;;;;;;16.80;14.05;;;21.40;62.80;;;;;;6065416;23;20277;-76
2022/03/27 11:30:41;;;;;;;15.18;13.57;;;21.70;61.80;;;;;;6064018;23;20190;-76
2022/03/27 11:33:16;;;;;;;16.08;14.48;;;21.60;61.30;;;;;;6065270;23;20237;-77
2022/03/27 11:35:59;;;;;;;16.88;14.45;;;21.60;61.70;;;;;;6064460;23;20162;-75
2022/03/27 11:38:29;;;;;;;16.88;14.40;;;21.60;61.90;;;;;;6064201;23;20642;-76
2022/03/27 11:40:56;;;;;;;16.05;14.00;;;21.70;62.00;;;;;;6065670;23;20186;-75
2022/03/27 11:43:28;;;;;;;16.73;14.23;;;21.60;61.50;;;;;;6065599;23;20550;-76
2022/03/27 11:45:57;;;;;;;16.48;13.73;;;21.60;61.90;;;;;;6064756;23;20714;-75
2022/03/27 11:48:25;;;;;;;14.70;13.02;;;21.80;62.50;;;;;;6065744;23;20840;-77
2022/03/27 11:50:54;;;;;;;14.35;12.95;;;22.30;62.70;;;;;;6064756;23;20178;-76
2022/03/27 11:53:32;;;;;;;15.98;14.38;;;22.60;61.80;;;;;;6065624;23;20202;-76
2022/03/27 11:56:10;;;;;;;15.45;13.85;;;22.90;60.00;;;;;;6064695;23;20163;-76
2022/03/27 11:58:37;;;;;;;16.27;14.00;;;22.80;59.60;;;;;;6066162;23;20212;-76
2022/03/27 12:01:05;;;;;;;14.65;13.15;;;22.70;61.20;;;;;;6065969;23;20217;-77
2022/03/27 12:03:33;;;;;;;16.30;14.50;;;22.70;61.20;;;;;;6066733;23;20209;-78
2022/03/27 12:06:07;;;;;;;14.52;13.07;;;22.80;60.00;;;;;;6066446;23;20178;-75
2022/03/27 12:08:37;;;;;;;16.88;13.90;;;22.60;60.00;;;;;;6066371;23;20178;-76
2022/03/27 12:11:06;;;;;;;16.27;14.02;;;22.60;59.50;;;;;;6082601;23;20202;-76
2022/03/27 12:13:37;;;;;;;15.70;14.07;;;22.40;59.30;;;;;;6066317;23;20205;-75
2022/03/27 12:16:05;;;;;;;15.32;13.73;;;22.30;59.30;;;;;;6066285;23;20205;-76
2022/03/27 12:18:34;;;;;;;15.50;13.88;;;22.20;59.20;;;;;;6065922;23;20178;-75
2022/03/27 12:21:04;;;;;;;15.48;13.88;;;22.30;59.90;;;;;;6066339;23;20197;-76
2022/03/27 12:23:33;;;;;;;16.85;13.93;;;22.40;59.70;;;;;;6065787;23;20199;-75
2022/03/27 12:29:40;;;;;;;16.88;14.10;;;22.40;60.00;;;;;;6065271;23;20545;-76
2022/03/27 12:32:00;;;;;;;14.73;13.00;;;22.90;59.60;;;;;;6064790;23;20221;-76
2022/03/27 12:34:27;;;;;;;15.00;13.40;;;23.20;59.70;;;;;;6065709;23;20201;-76
2022/03/27 12:37:12;;;;;;;14.02;12.52;;;23.40;58.90;;;;;;6065659;23;20206;-75
2022/03/27 12:40:02;;;;;;;14.18;12.77;;;23.50;57.90;;;;;;6065542;23;20178;-75
2022/03/27 12:42:43;;;;;;;14.65;13.15;;;23.40;57.30;;;;;;6065141;23;20241;-76
2022/03/27 12:45:17;;;;;;;15.55;13.95;;;23.30;57.80;;;;;;6065664;23;20241;-76
2022/03/27 12:47:46;;;;;;;16.52;13.20;;;23.10;58.30;;;;;;6065576;23;20206;-75
2022/03/27 12:50:14;;;;;;;15.15;13.52;;;23.10;57.30;;;;;;6064840;23;20187;-76
2022/03/27 12:52:49;;;;;;;13.65;12.27;;;23.00;57.30;;;;;;6064762;23;20210;-76
2022/03/27 12:55:17;;;;;;;14.48;12.98;;;23.10;56.70;;;;;;6065575;23;20173;-74